Terminal Aerodrome Forecast
Issued by NWS

Home | Current Version | Previous Version | Text Only | Print | Product List | Glossary On
Versions: 1 2 3 4 5 6 7 8 9 10 11 12 13 14 15 16 17 18
000
FTUS41 KCAR 110524
TAFBHB
TAF
KBHB 110524Z 1106/1206 VRB03KT P6SM SCT050
     FM111800 29005KT P6SM BKN030
     FM112000 31005KT P6SM SCT250
     FM120500 04004KT P6SM BKN100=

USA.gov is the U.S. government's official web portal to all federal, state and local government web resources and services.